sensor_id;sensor_type;location;lat;lon;timestamp;temperature;humidity
2957;DHT22;1488;51.548;7.222;2024-01-30T00:01:48;25.10;53.60
2957;DHT22;1488;51.548;7.222;2024-01-30T00:04:15;25.10;53.60
2957;DHT22;1488;51.548;7.222;2024-01-30T00:06:43;25.10;53.60
2957;DHT22;1488;51.548;7.222;2024-01-30T00:09:10;25.10;53.70
2957;DHT22;1488;51.548;7.222;2024-01-30T00:11:38;25.00;53.60
2957;DHT22;1488;51.548;7.222;2024-01-30T00:14:05;25.00;53.60
2957;DHT22;1488;51.548;7.222;2024-01-30T00:16:32;25.00;53.60
2957;DHT22;1488;51.548;7.222;2024-01-30T00:18:59;25.00;53.60
2957;DHT22;1488;51.548;7.222;2024-01-30T00:21:27;25.00;53.70
2957;DHT22;1488;51.548;7.222;2024-01-30T00:23:54;25.00;53.60
2957;DHT22;1488;51.548;7.222;2024-01-30T00:26:21;25.00;53.70
2957;DHT22;1488;51.548;7.222;2024-01-30T00:28:49;25.00;53.70
2957;DHT22;1488;51.548;7.222;2024-01-30T00:31:16;25.00;53.60
2957;DHT22;1488;51.548;7.222;2024-01-30T00:33:42;24.90;53.60
2957;DHT22;1488;51.548;7.222;2024-01-30T00:36:09;24.90;53.60
2957;DHT22;1488;51.548;7.222;2024-01-30T00:38:37;24.90;53.60
2957;DHT22;1488;51.548;7.222;2024-01-30T00:41:04;24.90;53.60
2957;DHT22;1488;51.548;7.222;2024-01-30T00:43:31;24.90;53.60
2957;DHT22;1488;51.548;7.222;2024-01-30T00:45:59;24.90;53.60
2957;DHT22;1488;51.548;7.222;2024-01-30T00:48:26;25.00;53.70
2957;DHT22;1488;51.548;7.222;2024-01-30T00:50:52;24.80;53.60
2957;DHT22;1488;51.548;7.222;2024-01-30T00:53:19;24.80;53.60
2957;DHT22;1488;51.548;7.222;2024-01-30T00:55:46;24.80;53.60
2957;DHT22;1488;51.548;7.222;2024-01-30T00:58:13;24.80;53.60
2957;DHT22;1488;51.548;7.222;2024-01-30T01:00:40;24.80;53.60
2957;DHT22;1488;51.548;7.222;2024-01-30T01:03:08;24.80;53.60
2957;DHT22;1488;51.548;7.222;2024-01-30T01:05:34;24.90;53.70
2957;DHT22;1488;51.548;7.222;2024-01-30T01:08:01;24.80;53.60
2957;DHT22;1488;51.548;7.222;2024-01-30T01:10:28;24.80;53.60
2957;DHT22;1488;51.548;7.222;2024-01-30T01:12:55;24.70;53.60
2957;DHT22;1488;51.548;7.222;2024-01-30T01:15:22;24.80;53.70
2957;DHT22;1488;51.548;7.222;2024-01-30T01:17:48;24.70;53.60
2957;DHT22;1488;51.548;7.222;2024-01-30T01:20:16;24.70;53.60
2957;DHT22;1488;51.548;7.222;2024-01-30T01:22:43;24.70;53.60
2957;DHT22;1488;51.548;7.222;2024-01-30T01:25:10;24.70;53.60
2957;DHT22;1488;51.548;7.222;2024-01-30T01:27:37;24.70;53.60
2957;DHT22;1488;51.548;7.222;2024-01-30T01:30:08;24.70;53.70
2957;DHT22;1488;51.548;7.222;2024-01-30T01:32:35;24.70;53.70
2957;DHT22;1488;51.548;7.222;2024-01-30T01:35:04;24.70;53.70
2957;DHT22;1488;51.548;7.222;2024-01-30T01:37:32;24.70;53.70
2957;DHT22;1488;51.548;7.222;2024-01-30T01:40:00;24.70;53.80
2957;DHT22;1488;51.548;7.222;2024-01-30T01:42:26;24.70;53.70
2957;DHT22;1488;51.548;7.222;2024-01-30T01:44:53;24.70;53.70
2957;DHT22;1488;51.548;7.222;2024-01-30T01:47:20;24.60;53.70
2957;DHT22;1488;51.548;7.222;2024-01-30T01:49:47;24.70;53.70
2957;DHT22;1488;51.548;7.222;2024-01-30T01:52:14;24.80;53.80
2957;DHT22;1488;51.548;7.222;2024-01-30T01:54:42;24.70;53.70
2957;DHT22;1488;51.548;7.222;2024-01-30T01:57:09;24.70;53.60
2957;DHT22;1488;51.548;7.222;2024-01-30T01:59:36;24.70;53.60
2957;DHT22;1488;51.548;7.222;2024-01-30T02:02:04;24.70;53.70
2957;DHT22;1488;51.548;7.222;2024-01-30T02:04:33;24.70;53.70
2957;DHT22;1488;51.548;7.222;2024-01-30T02:06:59;24.70;54.20
2957;DHT22;1488;51.548;7.222;2024-01-30T02:09:26;24.70;53.60
2957;DHT22;1488;51.548;7.222;2024-01-30T02:11:54;24.70;53.70
2957;DHT22;1488;51.548;7.222;2024-01-30T02:14:21;24.70;53.60
2957;DHT22;1488;51.548;7.222;2024-01-30T02:16:48;24.70;53.60
2957;DHT22;1488;51.548;7.222;2024-01-30T02:19:15;24.70;53.60
2957;DHT22;1488;51.548;7.222;2024-01-30T02:21:44;24.70;53.50
2957;DHT22;1488;51.548;7.222;2024-01-30T02:24:11;24.70;53.50
2957;DHT22;1488;51.548;7.222;2024-01-30T02:26:38;24.70;53.50
2957;DHT22;1488;51.548;7.222;2024-01-30T02:29:05;24.70;53.50
2957;DHT22;1488;51.548;7.222;2024-01-30T02:31:32;24.70;53.50
2957;DHT22;1488;51.548;7.222;2024-01-30T02:33:59;24.70;53.50
2957;DHT22;1488;51.548;7.222;2024-01-30T02:36:26;24.70;54.10
2957;DHT22;1488;51.548;7.222;2024-01-30T02:38:54;24.70;54.10
2957;DHT22;1488;51.548;7.222;2024-01-30T02:41:21;24.70;53.40
2957;DHT22;1488;51.548;7.222;2024-01-30T02:43:48;24.70;53.40
2957;DHT22;1488;51.548;7.222;2024-01-30T02:46:14;24.70;53.40
2957;DHT22;1488;51.548;7.222;2024-01-30T02:48:41;24.70;53.40
2957;DHT22;1488;51.548;7.222;2024-01-30T02:51:08;24.70;53.50
2957;DHT22;1488;51.548;7.222;2024-01-30T02:53:35;24.70;53.50
2957;DHT22;1488;51.548;7.222;2024-01-30T02:56:04;24.70;53.50
2957;DHT22;1488;51.548;7.222;2024-01-30T02:58:31;24.70;53.40
2957;DHT22;1488;51.548;7.222;2024-01-30T03:00:58;24.70;53.40
2957;DHT22;1488;51.548;7.222;2024-01-30T03:03:25;24.70;53.40
2957;DHT22;1488;51.548;7.222;2024-01-30T03:05:52;24.70;53.40
2957;DHT22;1488;51.548;7.222;2024-01-30T03:08:18;24.70;53.40
2957;DHT22;1488;51.548;7.222;2024-01-30T03:10:46;24.70;53.40
2957;DHT22;1488;51.548;7.222;2024-01-30T03:13:21;24.70;53.40
2957;DHT22;1488;51.548;7.222;2024-01-30T03:15:49;24.70;53.40
2957;DHT22;1488;51.548;7.222;2024-01-30T03:18:15;24.70;53.30
2957;DHT22;1488;51.548;7.222;2024-01-30T03:20:43;24.70;53.40
2957;DHT22;1488;51.548;7.222;2024-01-30T03:23:10;24.70;53.40
2957;DHT22;1488;51.548;7.222;2024-01-30T03:25:37;24.70;53.30
2957;DHT22;1488;51.548;7.222;2024-01-30T03:28:04;24.70;53.30
2957;DHT22;1488;51.548;7.222;2024-01-30T03:30:33;24.70;53.30
2957;DHT22;1488;51.548;7.222;2024-01-30T03:33:00;24.70;53.30
2957;DHT22;1488;51.548;7.222;2024-01-30T03:35:27;24.70;53.30
2957;DHT22;1488;51.548;7.222;2024-01-30T03:37:54;24.70;53.90
2957;DHT22;1488;51.548;7.222;2024-01-30T03:40:20;24.70;53.30
2957;DHT22;1488;51.548;7.222;2024-01-30T03:42:47;24.70;53.30
2957;DHT22;1488;51.548;7.222;2024-01-30T03:45:14;24.70;53.30
2957;DHT22;1488;51.548;7.222;2024-01-30T03:47:44;24.70;53.30
2957;DHT22;1488;51.548;7.222;2024-01-30T03:50:11;24.70;53.30
2957;DHT22;1488;51.548;7.222;2024-01-30T03:52:38;24.70;53.30
2957;DHT22;1488;51.548;7.222;2024-01-30T03:55:06;24.70;53.30
2957;DHT22;1488;51.548;7.222;2024-01-30T03:57:32;24.70;53.30
2957;DHT22;1488;51.548;7.222;2024-01-30T03:59:59;24.70;53.30
2957;DHT22;1488;51.548;7.222;2024-01-30T04:02:26;24.70;53.90
2957;DHT22;1488;51.548;7.222;2024-01-30T04:04:54;24.70;53.30
2957;DHT22;1488;51.548;7.222;2024-01-30T04:07:21;24.70;53.30
2957;DHT22;1488;51.548;7.222;2024-01-30T04:09:48;24.70;53.30
2957;DHT22;1488;51.548;7.222;2024-01-30T04:12:15;24.60;53.20
2957;DHT22;1488;51.548;7.222;2024-01-30T04:14:42;24.60;53.80
2957;DHT22;1488;51.548;7.222;2024-01-30T04:17:09;24.60;53.20
2957;DHT22;1488;51.548;7.222;2024-01-30T04:19:37;24.60;53.30
2957;DHT22;1488;51.548;7.222;2024-01-30T04:22:06;24.60;53.30
2957;DHT22;1488;51.548;7.222;2024-01-30T04:24:32;24.60;53.30
2957;DHT22;1488;51.548;7.222;2024-01-30T04:26:59;24.60;53.30
2957;DHT22;1488;51.548;7.222;2024-01-30T04:29:26;24.60;53.30
2957;DHT22;1488;51.548;7.222;2024-01-30T04:31:53;24.50;53.20
2957;DHT22;1488;51.548;7.222;2024-01-30T04:34:19;24.60;53.30
2957;DHT22;1488;51.548;7.222;2024-01-30T04:36:46;24.60;53.40
2957;DHT22;1488;51.548;7.222;2024-01-30T04:39:14;24.50;53.30
2957;DHT22;1488;51.548;7.222;2024-01-30T04:41:41;24.60;53.40
2957;DHT22;1488;51.548;7.222;2024-01-30T04:44:08;24.60;53.30
2957;DHT22;1488;51.548;7.222;2024-01-30T04:46:35;24.50;53.30
2957;DHT22;1488;51.548;7.222;2024-01-30T04:49:02;24.60;53.30
2957;DHT22;1488;51.548;7.222;2024-01-30T04:51:29;24.50;53.20
2957;DHT22;1488;51.548;7.222;2024-01-30T04:53:56;24.60;53.30
2957;DHT22;1488;51.548;7.222;2024-01-30T04:56:24;24.60;53.30
2957;DHT22;1488;51.548;7.222;2024-01-30T04:58:51;24.60;53.30
2957;DHT22;1488;51.548;7.222;2024-01-30T05:01:17;24.60;53.30
2957;DHT22;1488;51.548;7.222;2024-01-30T05:03:45;24.60;53.30
2957;DHT22;1488;51.548;7.222;2024-01-30T05:06:11;24.60;53.30
2957;DHT22;1488;51.548;7.222;2024-01-30T05:08:38;24.60;53.30
2957;DHT22;1488;51.548;7.222;2024-01-30T05:11:05;24.60;53.30
2957;DHT22;1488;51.548;7.222;2024-01-30T05:13:34;24.70;53.30
2957;DHT22;1488;51.548;7.222;2024-01-30T05:16:02;24.60;53.20
2957;DHT22;1488;51.548;7.222;2024-01-30T05:18:29;24.60;53.20
2957;DHT22;1488;51.548;7.222;2024-01-30T05:20:56;24.60;53.20
2957;DHT22;1488;51.548;7.222;2024-01-30T05:23:22;24.60;53.20
2957;DHT22;1488;51.548;7.222;2024-01-30T05:25:49;24.60;53.20
2957;DHT22;1488;51.548;7.222;2024-01-30T05:28:16;24.70;53.30
2957;DHT22;1488;51.548;7.222;2024-01-30T05:30:44;24.70;53.30
2957;DHT22;1488;51.548;7.222;2024-01-30T05:33:11;24.70;53.30
2957;DHT22;1488;51.548;7.222;2024-01-30T05:35:39;24.80;53.30
2957;DHT22;1488;51.548;7.222;2024-01-30T05:38:06;24.70;53.80
2957;DHT22;1488;51.548;7.222;2024-01-30T05:40:33;24.80;53.30
2957;DHT22;1488;51.548;7.222;2024-01-30T05:43:00;24.70;53.20
2957;DHT22;1488;51.548;7.222;2024-01-30T05:45:28;24.80;53.30
2957;DHT22;1488;51.548;7.222;2024-01-30T05:47:56;24.80;53.40
2957;DHT22;1488;51.548;7.222;2024-01-30T05:50:23;24.80;54.10
2957;DHT22;1488;51.548;7.222;2024-01-30T05:52:51;24.80;53.50
2957;DHT22;1488;51.548;7.222;2024-01-30T05:55:18;24.80;53.50
2957;DHT22;1488;51.548;7.222;2024-01-30T05:57:45;24.80;53.50
2957;DHT22;1488;51.548;7.222;2024-01-30T06:00:12;24.80;53.60
2957;DHT22;1488;51.548;7.222;2024-01-30T06:02:40;24.80;53.60
2957;DHT22;1488;51.548;7.222;2024-01-30T06:05:08;24.80;53.60
2957;DHT22;1488;51.548;7.222;2024-01-30T06:07:35;24.80;53.60
2957;DHT22;1488;51.548;7.222;2024-01-30T06:10:02;24.80;53.70
2957;DHT22;1488;51.548;7.222;2024-01-30T06:12:29;24.80;53.70
2957;DHT22;1488;51.548;7.222;2024-01-30T06:14:56;24.80;53.70
2957;DHT22;1488;51.548;7.222;2024-01-30T06:17:23;24.80;53.80
2957;DHT22;1488;51.548;7.222;2024-01-30T06:19:50;24.80;53.80
2957;DHT22;1488;51.548;7.222;2024-01-30T06:22:18;24.80;53.90
2957;DHT22;1488;51.548;7.222;2024-01-30T06:24:45;24.80;54.00
2957;DHT22;1488;51.548;7.222;2024-01-30T06:27:13;24.80;54.00
2957;DHT22;1488;51.548;7.222;2024-01-30T06:29:40;24.80;54.10
2957;DHT22;1488;51.548;7.222;2024-01-30T06:32:07;24.90;54.10
2957;DHT22;1488;51.548;7.222;2024-01-30T06:34:34;24.80;54.20
2957;DHT22;1488;51.548;7.222;2024-01-30T06:37:00;24.80;54.10
2957;DHT22;1488;51.548;7.222;2024-01-30T06:39:29;24.80;54.10
2957;DHT22;1488;51.548;7.222;2024-01-30T06:41:56;24.80;54.10
2957;DHT22;1488;51.548;7.222;2024-01-30T06:44:22;24.80;54.10
2957;DHT22;1488;51.548;7.222;2024-01-30T06:46:49;24.80;54.10
2957;DHT22;1488;51.548;7.222;2024-01-30T06:49:16;24.80;54.30
2957;DHT22;1488;51.548;7.222;2024-01-30T06:51:43;24.80;54.10
2957;DHT22;1488;51.548;7.222;2024-01-30T06:54:10;24.80;54.30
2957;DHT22;1488;51.548;7.222;2024-01-30T06:56:39;24.80;54.20
2957;DHT22;1488;51.548;7.222;2024-01-30T06:59:05;24.80;54.20
2957;DHT22;1488;51.548;7.222;2024-01-30T07:01:32;24.80;54.80
2957;DHT22;1488;51.548;7.222;2024-01-30T07:03:59;24.80;54.10
2957;DHT22;1488;51.548;7.222;2024-01-30T07:06:26;24.90;54.20
2957;DHT22;1488;51.548;7.222;2024-01-30T07:08:53;24.80;54.10
2957;DHT22;1488;51.548;7.222;2024-01-30T07:11:20;24.80;54.10
2957;DHT22;1488;51.548;7.222;2024-01-30T07:13:49;24.80;54.10
2957;DHT22;1488;51.548;7.222;2024-01-30T07:16:16;24.80;54.00
2957;DHT22;1488;51.548;7.222;2024-01-30T07:18:43;24.80;54.10
2957;DHT22;1488;51.548;7.222;2024-01-30T07:21:10;24.80;54.00
2957;DHT22;1488;51.548;7.222;2024-01-30T07:23:37;24.90;54.10
2957;DHT22;1488;51.548;7.222;2024-01-30T07:26:04;24.90;54.10
2957;DHT22;1488;51.548;7.222;2024-01-30T07:28:32;24.80;54.00
2957;DHT22;1488;51.548;7.222;2024-01-30T07:31:00;24.80;54.00
2957;DHT22;1488;51.548;7.222;2024-01-30T07:33:27;24.80;54.00
2957;DHT22;1488;51.548;7.222;2024-01-30T07:35:53;24.80;54.00
2957;DHT22;1488;51.548;7.222;2024-01-30T07:38:20;24.80;54.00
2957;DHT22;1488;51.548;7.222;2024-01-30T07:40:47;24.80;53.90
2957;DHT22;1488;51.548;7.222;2024-01-30T07:43:14;24.80;54.00
2957;DHT22;1488;51.548;7.222;2024-01-30T07:45:43;24.80;53.90
2957;DHT22;1488;51.548;7.222;2024-01-30T07:48:11;24.80;54.00
2957;DHT22;1488;51.548;7.222;2024-01-30T07:50:39;24.90;54.10
2957;DHT22;1488;51.548;7.222;2024-01-30T07:53:06;24.90;54.10
2957;DHT22;1488;51.548;7.222;2024-01-30T07:55:33;24.90;54.00
2957;DHT22;1488;51.548;7.222;2024-01-30T07:57:59;24.90;54.00
2957;DHT22;1488;51.548;7.222;2024-01-30T08:00:26;24.90;54.50
2957;DHT22;1488;51.548;7.222;2024-01-30T08:02:54;24.90;54.00
2957;DHT22;1488;51.548;7.222;2024-01-30T08:05:23;25.00;54.10
2957;DHT22;1488;51.548;7.222;2024-01-30T08:07:50;24.90;54.00
2957;DHT22;1488;51.548;7.222;2024-01-30T08:10:17;24.90;54.00
2957;DHT22;1488;51.548;7.222;2024-01-30T08:12:44;24.90;54.00
2957;DHT22;1488;51.548;7.222;2024-01-30T08:15:11;25.00;54.00
2957;DHT22;1488;51.548;7.222;2024-01-30T08:17:39;24.90;53.90
2957;DHT22;1488;51.548;7.222;2024-01-30T08:20:06;24.90;53.90
2957;DHT22;1488;51.548;7.222;2024-01-30T08:22:38;24.90;53.90
2957;DHT22;1488;51.548;7.222;2024-01-30T08:25:06;24.90;53.90
2957;DHT22;1488;51.548;7.222;2024-01-30T08:27:33;24.90;53.80
2957;DHT22;1488;51.548;7.222;2024-01-30T08:30:01;24.90;53.80
2957;DHT22;1488;51.548;7.222;2024-01-30T08:32:27;24.90;53.90
2957;DHT22;1488;51.548;7.222;2024-01-30T08:34:54;24.90;53.90
2957;DHT22;1488;51.548;7.222;2024-01-30T08:37:21;24.90;53.90
2957;DHT22;1488;51.548;7.222;2024-01-30T08:39:49;24.90;53.80
2957;DHT22;1488;51.548;7.222;2024-01-30T08:42:16;24.90;53.80
2957;DHT22;1488;51.548;7.222;2024-01-30T08:44:47;24.90;53.90
2957;DHT22;1488;51.548;7.222;2024-01-30T08:47:14;24.90;53.80
2957;DHT22;1488;51.548;7.222;2024-01-30T08:49:43;24.90;53.80
2957;DHT22;1488;51.548;7.222;2024-01-30T08:52:10;24.90;53.80
2957;DHT22;1488;51.548;7.222;2024-01-30T08:54:37;24.90;53.80
2957;DHT22;1488;51.548;7.222;2024-01-30T08:57:05;24.90;53.80
2957;DHT22;1488;51.548;7.222;2024-01-30T08:59:32;25.00;53.80
2957;DHT22;1488;51.548;7.222;2024-01-30T09:01:59;24.90;53.80
2957;DHT22;1488;51.548;7.222;2024-01-30T09:04:26;24.90;53.80
2957;DHT22;1488;51.548;7.222;2024-01-30T09:06:53;24.90;53.80
2957;DHT22;1488;51.548;7.222;2024-01-30T09:09:20;24.90;53.80
2957;DHT22;1488;51.548;7.222;2024-01-30T09:11:47;24.90;53.80
2957;DHT22;1488;51.548;7.222;2024-01-30T09:14:15;24.90;53.80
2957;DHT22;1488;51.548;7.222;2024-01-30T09:16:42;24.90;53.80
2957;DHT22;1488;51.548;7.222;2024-01-30T09:19:09;24.90;53.80
2957;DHT22;1488;51.548;7.222;2024-01-30T09:21:36;24.90;53.80
2957;DHT22;1488;51.548;7.222;2024-01-30T09:24:03;24.90;53.90
2957;DHT22;1488;51.548;7.222;2024-01-30T09:26:30;24.90;53.80
2957;DHT22;1488;51.548;7.222;2024-01-30T09:28:57;24.90;53.80
2957;DHT22;1488;51.548;7.222;2024-01-30T09:31:25;24.90;53.80
2957;DHT22;1488;51.548;7.222;2024-01-30T09:33:52;24.80;53.70
2957;DHT22;1488;51.548;7.222;2024-01-30T09:36:19;24.90;53.80
2957;DHT22;1488;51.548;7.222;2024-01-30T09:38:46;24.90;53.90
2957;DHT22;1488;51.548;7.222;2024-01-30T09:41:13;24.90;53.80
2957;DHT22;1488;51.548;7.222;2024-01-30T09:43:42;24.90;53.80
2957;DHT22;1488;51.548;7.222;2024-01-30T09:46:15;24.90;53.90
2957;DHT22;1488;51.548;7.222;2024-01-30T09:48:46;24.90;53.90
2957;DHT22;1488;51.548;7.222;2024-01-30T09:51:14;24.90;53.90
2957;DHT22;1488;51.548;7.222;2024-01-30T09:53:42;24.90;53.90
2957;DHT22;1488;51.548;7.222;2024-01-30T09:56:10;24.80;53.80
2957;DHT22;1488;51.548;7.222;2024-01-30T09:58:36;24.80;53.80
2957;DHT22;1488;51.548;7.222;2024-01-30T10:01:05;24.80;53.80
2957;DHT22;1488;51.548;7.222;2024-01-30T10:03:32;24.80;53.80
2957;DHT22;1488;51.548;7.222;2024-01-30T10:06:01;24.80;53.90
2957;DHT22;1488;51.548;7.222;2024-01-30T10:08:28;24.80;53.90
2957;DHT22;1488;51.548;7.222;2024-01-30T10:10:55;24.90;54.00
2957;DHT22;1488;51.548;7.222;2024-01-30T10:13:22;24.80;53.90
2957;DHT22;1488;51.548;7.222;2024-01-30T10:15:48;24.90;54.00
2957;DHT22;1488;51.548;7.222;2024-01-30T10:18:16;24.90;54.00
2957;DHT22;1488;51.548;7.222;2024-01-30T10:20:43;24.80;53.90
2957;DHT22;1488;51.548;7.222;2024-01-30T10:23:11;24.90;54.00
2957;DHT22;1488;51.548;7.222;2024-01-30T10:25:40;25.20;53.90
2957;DHT22;1488;51.548;7.222;2024-01-30T10:28:07;25.50;53.50
2957;DHT22;1488;51.548;7.222;2024-01-30T10:30:34;25.80;53.10
2957;DHT22;1488;51.548;7.222;2024-01-30T10:33:02;26.00;52.90
2957;DHT22;1488;51.548;7.222;2024-01-30T10:35:29;26.00;52.90
2957;DHT22;1488;51.548;7.222;2024-01-30T10:37:57;26.00;52.80
2957;DHT22;1488;51.548;7.222;2024-01-30T10:40:28;26.00;52.90
2957;DHT22;1488;51.548;7.222;2024-01-30T10:42:55;26.00;53.00
2957;DHT22;1488;51.548;7.222;2024-01-30T10:45:23;25.90;53.10
2957;DHT22;1488;51.548;7.222;2024-01-30T10:47:54;25.90;53.30
2957;DHT22;1488;51.548;7.222;2024-01-30T10:50:24;25.80;53.40
2957;DHT22;1488;51.548;7.222;2024-01-30T10:52:52;25.70;53.50
2957;DHT22;1488;51.548;7.222;2024-01-30T10:55:22;25.70;53.60
2957;DHT22;1488;51.548;7.222;2024-01-30T10:57:51;25.60;53.60
2957;DHT22;1488;51.548;7.222;2024-01-30T11:00:19;25.60;54.30
2957;DHT22;1488;51.548;7.222;2024-01-30T11:02:49;25.60;53.80
2957;DHT22;1488;51.548;7.222;2024-01-30T11:05:23;25.60;53.90
2957;DHT22;1488;51.548;7.222;2024-01-30T11:07:50;25.60;53.90
2957;DHT22;1488;51.548;7.222;2024-01-30T11:10:17;25.50;53.80
2957;DHT22;1488;51.548;7.222;2024-01-30T11:12:46;25.50;53.90
2957;DHT22;1488;51.548;7.222;2024-01-30T11:15:15;25.50;54.00
2957;DHT22;1488;51.548;7.222;2024-01-30T11:17:43;25.40;54.00
2957;DHT22;1488;51.548;7.222;2024-01-30T11:20:14;25.40;54.00
2957;DHT22;1488;51.548;7.222;2024-01-30T11:22:42;25.40;54.10
2957;DHT22;1488;51.548;7.222;2024-01-30T11:25:14;25.40;54.20
2957;DHT22;1488;51.548;7.222;2024-01-30T11:27:41;25.40;54.20
2957;DHT22;1488;51.548;7.222;2024-01-30T11:30:09;25.30;54.30
2957;DHT22;1488;51.548;7.222;2024-01-30T11:32:38;25.30;54.30
2957;DHT22;1488;51.548;7.222;2024-01-30T11:35:05;25.30;54.50
2957;DHT22;1488;51.548;7.222;2024-01-30T11:37:37;25.30;54.60
2957;DHT22;1488;51.548;7.222;2024-01-30T11:40:05;25.30;54.70
2957;DHT22;1488;51.548;7.222;2024-01-30T11:42:32;25.30;54.80
2957;DHT22;1488;51.548;7.222;2024-01-30T11:45:00;25.30;54.80
2957;DHT22;1488;51.548;7.222;2024-01-30T11:47:28;25.20;54.80
2957;DHT22;1488;51.548;7.222;2024-01-30T11:49:56;25.20;54.90
2957;DHT22;1488;51.548;7.222;2024-01-30T11:52:23;25.20;54.90
2957;DHT22;1488;51.548;7.222;2024-01-30T11:54:50;25.20;55.00
2957;DHT22;1488;51.548;7.222;2024-01-30T11:57:19;25.20;55.00
2957;DHT22;1488;51.548;7.222;2024-01-30T11:59:46;25.30;55.10
2957;DHT22;1488;51.548;7.222;2024-01-30T12:02:15;25.20;55.10
2957;DHT22;1488;51.548;7.222;2024-01-30T12:04:43;25.20;55.10
2957;DHT22;1488;51.548;7.222;2024-01-30T12:07:12;25.20;55.10
2957;DHT22;1488;51.548;7.222;2024-01-30T12:09:41;25.20;55.10
2957;DHT22;1488;51.548;7.222;2024-01-30T12:12:08;25.20;55.10
2957;DHT22;1488;51.548;7.222;2024-01-30T12:14:38;25.20;55.10
2957;DHT22;1488;51.548;7.222;2024-01-30T12:17:05;25.30;55.10
2957;DHT22;1488;51.548;7.222;2024-01-30T12:19:34;25.30;55.00
2957;DHT22;1488;51.548;7.222;2024-01-30T12:22:01;25.20;54.90
2957;DHT22;1488;51.548;7.222;2024-01-30T12:24:29;25.30;55.00
2957;DHT22;1488;51.548;7.222;2024-01-30T12:26:57;25.30;54.90
2957;DHT22;1488;51.548;7.222;2024-01-30T12:29:25;25.20;54.90
2957;DHT22;1488;51.548;7.222;2024-01-30T12:31:53;25.30;54.90
2957;DHT22;1488;51.548;7.222;2024-01-30T12:34:20;25.20;54.90
2957;DHT22;1488;51.548;7.222;2024-01-30T12:36:47;25.20;54.80
2957;DHT22;1488;51.548;7.222;2024-01-30T12:39:15;25.20;54.80
2957;DHT22;1488;51.548;7.222;2024-01-30T12:41:44;25.20;54.80
2957;DHT22;1488;51.548;7.222;2024-01-30T12:44:11;25.20;54.80
2957;DHT22;1488;51.548;7.222;2024-01-30T12:46:39;25.20;54.80
2957;DHT22;1488;51.548;7.222;2024-01-30T12:49:06;25.20;54.80
2957;DHT22;1488;51.548;7.222;2024-01-30T12:51:34;25.20;54.70
2957;DHT22;1488;51.548;7.222;2024-01-30T12:54:05;25.20;54.70
2957;DHT22;1488;51.548;7.222;2024-01-30T12:56:32;25.20;54.70
2957;DHT22;1488;51.548;7.222;2024-01-30T12:59:00;25.20;54.40
2957;DHT22;1488;51.548;7.222;2024-01-30T13:01:27;25.20;54.70
2957;DHT22;1488;51.548;7.222;2024-01-30T13:03:54;25.10;54.70
2957;DHT22;1488;51.548;7.222;2024-01-30T13:06:22;25.10;54.70
2957;DHT22;1488;51.548;7.222;2024-01-30T13:08:49;25.10;54.70
2957;DHT22;1488;51.548;7.222;2024-01-30T13:11:16;25.10;54.70
2957;DHT22;1488;51.548;7.222;2024-01-30T13:13:43;25.10;54.80
2957;DHT22;1488;51.548;7.222;2024-01-30T13:16:11;25.10;54.80
2957;DHT22;1488;51.548;7.222;2024-01-30T13:18:38;25.10;54.70
2957;DHT22;1488;51.548;7.222;2024-01-30T13:21:05;25.10;54.70
2957;DHT22;1488;51.548;7.222;2024-01-30T13:23:32;25.10;54.70
2957;DHT22;1488;51.548;7.222;2024-01-30T13:25:58;25.10;54.70
2957;DHT22;1488;51.548;7.222;2024-01-30T13:28:25;25.10;54.70
2957;DHT22;1488;51.548;7.222;2024-01-30T13:30:52;25.10;54.70
2957;DHT22;1488;51.548;7.222;2024-01-30T13:33:20;25.10;54.70
2957;DHT22;1488;51.548;7.222;2024-01-30T13:35:47;25.10;54.70
2957;DHT22;1488;51.548;7.222;2024-01-30T13:38:14;25.10;54.70
2957;DHT22;1488;51.548;7.222;2024-01-30T13:40:41;25.10;54.70
2957;DHT22;1488;51.548;7.222;2024-01-30T13:43:08;25.10;54.60
2957;DHT22;1488;51.548;7.222;2024-01-30T13:45:35;25.10;54.60
2957;DHT22;1488;51.548;7.222;2024-01-30T13:48:02;25.10;54.60
2957;DHT22;1488;51.548;7.222;2024-01-30T13:50:31;25.10;54.60
2957;DHT22;1488;51.548;7.222;2024-01-30T13:52:58;25.10;54.50
2957;DHT22;1488;51.548;7.222;2024-01-30T13:55:25;25.10;54.50
2957;DHT22;1488;51.548;7.222;2024-01-30T13:57:52;25.10;54.50
2957;DHT22;1488;51.548;7.222;2024-01-30T14:00:19;25.10;54.50
2957;DHT22;1488;51.548;7.222;2024-01-30T14:02:47;25.10;54.60
2957;DHT22;1488;51.548;7.222;2024-01-30T14:05:14;25.10;54.60
2957;DHT22;1488;51.548;7.222;2024-01-30T14:07:43;25.10;54.70
2957;DHT22;1488;51.548;7.222;2024-01-30T14:10:10;25.10;54.70
2957;DHT22;1488;51.548;7.222;2024-01-30T14:12:37;25.10;54.70
2957;DHT22;1488;51.548;7.222;2024-01-30T14:15:05;25.10;54.70
2957;DHT22;1488;51.548;7.222;2024-01-30T14:17:32;25.10;54.60
2957;DHT22;1488;51.548;7.222;2024-01-30T14:19:59;25.10;54.60
2957;DHT22;1488;51.548;7.222;2024-01-30T14:22:26;25.10;54.70
2957;DHT22;1488;51.548;7.222;2024-01-30T14:24:54;25.10;54.80
2957;DHT22;1488;51.548;7.222;2024-01-30T14:27:22;25.10;54.60
2957;DHT22;1488;51.548;7.222;2024-01-30T14:29:49;25.10;54.70
2957;DHT22;1488;51.548;7.222;2024-01-30T14:32:16;25.20;54.70
2957;DHT22;1488;51.548;7.222;2024-01-30T14:34:43;25.20;54.70
2957;DHT22;1488;51.548;7.222;2024-01-30T14:37:10;25.10;54.60
2957;DHT22;1488;51.548;7.222;2024-01-30T14:39:37;25.10;54.60
2957;DHT22;1488;51.548;7.222;2024-01-30T14:42:08;25.10;54.60
2957;DHT22;1488;51.548;7.222;2024-01-30T14:44:35;25.10;54.60
2957;DHT22;1488;51.548;7.222;2024-01-30T14:47:02;25.10;54.60
2957;DHT22;1488;51.548;7.222;2024-01-30T14:49:30;25.10;54.60
2957;DHT22;1488;51.548;7.222;2024-01-30T14:51:56;25.10;54.60
2957;DHT22;1488;51.548;7.222;2024-01-30T14:54:24;25.10;54.60
2957;DHT22;1488;51.548;7.222;2024-01-30T14:56:51;25.10;54.60
2957;DHT22;1488;51.548;7.222;2024-01-30T14:59:19;25.10;54.60
2957;DHT22;1488;51.548;7.222;2024-01-30T15:01:46;25.10;54.50
2957;DHT22;1488;51.548;7.222;2024-01-30T15:04:13;25.10;54.50
2957;DHT22;1488;51.548;7.222;2024-01-30T15:06:40;25.10;54.50
2957;DHT22;1488;51.548;7.222;2024-01-30T15:09:10;25.10;54.50
2957;DHT22;1488;51.548;7.222;2024-01-30T15:11:40;25.00;54.60
2957;DHT22;1488;51.548;7.222;2024-01-30T15:14:07;25.10;54.60
2957;DHT22;1488;51.548;7.222;2024-01-30T15:16:35;25.10;54.50
2957;DHT22;1488;51.548;7.222;2024-01-30T15:19:02;25.10;54.50
2957;DHT22;1488;51.548;7.222;2024-01-30T15:21:30;25.00;54.10
2957;DHT22;1488;51.548;7.222;2024-01-30T15:23:57;25.00;54.20
2957;DHT22;1488;51.548;7.222;2024-01-30T15:26:24;25.00;54.20
2957;DHT22;1488;51.548;7.222;2024-01-30T15:28:50;24.90;54.20
2957;DHT22;1488;51.548;7.222;2024-01-30T15:31:17;24.90;54.20
2957;DHT22;1488;51.548;7.222;2024-01-30T15:33:47;24.80;54.10
2957;DHT22;1488;51.548;7.222;2024-01-30T15:36:14;24.90;54.30
2957;DHT22;1488;51.548;7.222;2024-01-30T15:38:41;24.80;54.20
2957;DHT22;1488;51.548;7.222;2024-01-30T15:41:09;24.80;54.20
2957;DHT22;1488;51.548;7.222;2024-01-30T15:43:35;24.80;54.40
2957;DHT22;1488;51.548;7.222;2024-01-30T15:46:03;24.80;54.40
2957;DHT22;1488;51.548;7.222;2024-01-30T15:48:29;24.80;54.40
2957;DHT22;1488;51.548;7.222;2024-01-30T15:50:59;24.80;54.60
2957;DHT22;1488;51.548;7.222;2024-01-30T15:53:26;24.90;54.70
2957;DHT22;1488;51.548;7.222;2024-01-30T15:55:53;24.90;54.70
2957;DHT22;1488;51.548;7.222;2024-01-30T15:58:20;24.90;55.30
2957;DHT22;1488;51.548;7.222;2024-01-30T16:00:47;24.90;54.70
2957;DHT22;1488;51.548;7.222;2024-01-30T16:03:14;24.90;54.70